Time;durP1;ratioP1;P1;durP2;ratioP2;P2;SDS_P1;SDS_P2;PMS_P1;PMS_P2;Temp;Humidity;BMP_temperature;BMP_pressure;BME280_temperature;BME280_humidity;BME280_pressure;Samples;Min_cycle;Max_cycle;Signal;HPM_P1;HPM_P2
2023/06/07 00:00:14;;;;;;;4.23;2.60;;;;;;;;;;5114895;28;20425;-79
2023/06/07 00:02:41;;;;;;;6.07;2.27;;;;;;;;;;5115109;28;20421;-81
2023/06/07 00:05:07;;;;;;;8.80;2.80;;;;;;;;;;5114979;28;20429;-82
2023/06/07 00:07:35;;;;;;;5.33;2.30;;;;;;;;;;5108369;27;20901;-80
2023/06/07 00:10:01;;;;;;;3.73;2.30;;;;;;;;;;5134365;27;20432;-79
2023/06/07 00:12:27;;;;;;;5.07;2.60;;;;;;;;;;5117074;27;20784;-85
2023/06/07 00:14:54;;;;;;;4.87;2.90;;;;;;;;;;5135083;27;20472;-85
2023/06/07 00:17:20;;;;;;;6.13;2.63;;;;;;;;;;5135715;27;20404;-79
2023/06/07 00:19:46;;;;;;;5.30;2.50;;;;;;;;;;5135417;27;20412;-84
2023/06/07 00:22:12;;;;;;;6.07;2.10;;;;;;;;;;5135281;27;20414;-85
2023/06/07 00:24:38;;;;;;;8.03;4.27;;;;;;;;;;5135250;27;20509;-83
2023/06/07 00:27:04;;;;;;;6.10;3.00;;;;;;;;;;5135017;27;20412;-84
2023/06/07 00:29:30;;;;;;;5.33;2.80;;;;;;;;;;5135056;27;20466;-79
2023/06/07 00:31:56;;;;;;;4.70;2.90;;;;;;;;;;5135258;27;20812;-83
2023/06/07 00:34:22;;;;;;;4.67;2.77;;;;;;;;;;5135102;27;20210;-84
2023/06/07 00:36:48;;;;;;;7.27;3.40;;;;;;;;;;5135092;27;20397;-79
2023/06/07 00:39:14;;;;;;;4.20;2.00;;;;;;;;;;5116770;27;20187;-79
2023/06/07 00:41:40;;;;;;;6.67;2.40;;;;;;;;;;5135107;27;20411;-85
2023/06/07 00:44:07;;;;;;;6.73;2.60;;;;;;;;;;5134679;27;20409;-84
2023/06/07 00:46:33;;;;;;;6.30;3.00;;;;;;;;;;5116662;27;20468;-79
2023/06/07 00:48:59;;;;;;;11.57;3.30;;;;;;;;;;5134810;27;20413;-80
2023/06/07 00:51:29;;;;;;;6.90;3.37;;;;;;;;;;5134996;27;20413;-85
2023/06/07 00:53:56;;;;;;;4.23;2.43;;;;;;;;;;5134947;27;20412;-85
2023/06/07 00:56:22;;;;;;;6.63;2.00;;;;;;;;;;5134693;27;20816;-80
2023/06/07 00:58:50;;;;;;;8.03;2.77;;;;;;;;;;5134534;27;20400;-80
2023/06/07 01:01:17;;;;;;;5.30;2.90;;;;;;;;;;5134781;27;20418;-86
2023/06/07 01:03:43;;;;;;;3.17;2.37;;;;;;;;;;5116283;27;20420;-80
2023/06/07 01:06:13;;;;;;;5.53;1.90;;;;;;;;;;5134921;27;20417;-81
2023/06/07 01:08:39;;;;;;;6.13;2.67;;;;;;;;;;5134566;27;20395;-80
2023/06/07 01:11:05;;;;;;;8.67;3.60;;;;;;;;;;5116134;27;20454;-85
2023/06/07 01:13:32;;;;;;;4.60;2.70;;;;;;;;;;5134216;27;20484;-80
2023/06/07 01:15:58;;;;;;;9.40;3.47;;;;;;;;;;5134384;27;20478;-86
2023/06/07 01:18:24;;;;;;;6.27;2.40;;;;;;;;;;5134745;27;20415;-85
2023/06/07 01:20:54;;;;;;;7.20;3.27;;;;;;;;;;5134382;27;20468;-79
2023/06/07 01:23:28;;;;;;;6.53;3.10;;;;;;;;;;5134350;27;20487;-80
2023/06/07 01:26:00;;;;;;;7.80;3.50;;;;;;;;;;5115870;27;20452;-80
2023/06/07 01:28:27;;;;;;;4.13;2.07;;;;;;;;;;5115786;27;20719;-83
2023/06/07 01:30:56;;;;;;;5.60;2.50;;;;;;;;;;5133832;27;20407;-83
2023/06/07 01:33:22;;;;;;;5.70;2.30;;;;;;;;;;5134191;27;20447;-81
2023/06/07 01:35:51;;;;;;;4.37;2.17;;;;;;;;;;5134042;27;20477;-84
2023/06/07 01:38:19;;;;;;;5.33;3.40;;;;;;;;;;5115623;27;20454;-83
2023/06/07 01:40:45;;;;;;;10.60;3.20;;;;;;;;;;5134010;27;20727;-83
2023/06/07 01:43:12;;;;;;;6.30;3.23;;;;;;;;;;5115547;28;20985;-80
2023/06/07 01:45:38;;;;;;;4.20;2.93;;;;;;;;;;5133600;28;20419;-82
2023/06/07 01:48:04;;;;;;;5.90;2.00;;;;;;;;;;5134189;28;20783;-85
2023/06/07 01:50:31;;;;;;;5.23;2.70;;;;;;;;;;5134164;28;20485;-82
2023/06/07 01:52:56;;;;;;;8.57;3.97;;;;;;;;;;5134102;28;20497;-81
2023/06/07 01:55:23;;;;;;;8.90;3.50;;;;;;;;;;5134051;28;20560;-81
2023/06/07 01:57:50;;;;;;;6.30;2.73;;;;;;;;;;5115520;28;20422;-84
2023/06/07 02:00:22;;;;;;;4.83;2.70;;;;;;;;;;5115206;28;20426;-84
2023/06/07 02:03:07;;;;;;;5.17;2.63;;;;;;;;;;5134128;28;20407;-79
2023/06/07 02:05:35;;;;;;;6.30;2.07;;;;;;;;;;5115421;28;20479;-83
2023/06/07 02:08:09;;;;;;;8.50;3.43;;;;;;;;;;5115311;28;20429;-79
2023/06/07 02:10:38;;;;;;;6.73;2.43;;;;;;;;;;5133893;28;20451;-79
2023/06/07 02:13:05;;;;;;;6.00;2.20;;;;;;;;;;5133406;28;20414;-83
2023/06/07 02:15:31;;;;;;;8.57;3.30;;;;;;;;;;5133412;28;20515;-79
2023/06/07 02:17:58;;;;;;;9.33;2.53;;;;;;;;;;5115310;28;20418;-83
2023/06/07 02:20:25;;;;;;;6.17;2.83;;;;;;;;;;5115204;28;20903;-79
2023/06/07 02:22:51;;;;;;;5.73;2.97;;;;;;;;;;5133700;28;20438;-79
2023/06/07 02:25:17;;;;;;;6.73;2.33;;;;;;;;;;5133651;28;20446;-85
2023/06/07 02:27:43;;;;;;;7.13;3.77;;;;;;;;;;5133494;28;20812;-82
2023/06/07 02:30:09;;;;;;;4.67;2.20;;;;;;;;;;5133156;28;20436;-84
2023/06/07 02:32:35;;;;;;;6.93;2.50;;;;;;;;;;5133613;28;20174;-79
2023/06/07 02:35:01;;;;;;;12.80;5.03;;;;;;;;;;5115067;28;20478;-79
2023/06/07 02:37:28;;;;;;;6.40;2.90;;;;;;;;;;5133552;28;20406;-83
2023/06/07 02:39:54;;;;;;;5.30;2.40;;;;;;;;;;5133598;28;20407;-79
2023/06/07 02:42:20;;;;;;;5.87;2.40;;;;;;;;;;5134218;28;20886;-78
2023/06/07 02:44:46;;;;;;;4.73;2.07;;;;;;;;;;5133646;28;20429;-85
2023/06/07 02:47:12;;;;;;;7.37;2.70;;;;;;;;;;5133598;28;20172;-86
2023/06/07 02:49:38;;;;;;;4.43;1.97;;;;;;;;;;5136301;27;20644;-80
2023/06/07 02:52:04;;;;;;;4.90;2.33;;;;;;;;;;5137776;27;20418;-87
2023/06/07 02:54:30;;;;;;;4.30;2.10;;;;;;;;;;5137384;27;20522;-80
2023/06/07 02:56:59;;;;;;;11.13;2.00;;;;;;;;;;5137004;27;20401;-80
2023/06/07 02:59:26;;;;;;;6.30;3.27;;;;;;;;;;5136654;27;20508;-84
2023/06/07 03:01:52;;;;;;;7.70;2.17;;;;;;;;;;5136877;27;20454;-80
2023/06/07 03:04:19;;;;;;;7.57;2.83;;;;;;;;;;5118445;27;20494;-84
2023/06/07 03:06:46;;;;;;;7.13;2.27;;;;;;;;;;5136956;27;20187;-85
2023/06/07 03:09:14;;;;;;;7.97;2.20;;;;;;;;;;5136804;27;20902;-79
2023/06/07 03:11:40;;;;;;;6.93;2.00;;;;;;;;;;5136769;27;20758;-84
2023/06/07 03:14:06;;;;;;;4.37;2.33;;;;;;;;;;5136272;27;20466;-81
2023/06/07 03:16:33;;;;;;;7.07;2.47;;;;;;;;;;5118356;27;20770;-80
2023/06/07 03:18:59;;;;;;;7.80;3.43;;;;;;;;;;5136581;27;20444;-81
2023/06/07 03:21:25;;;;;;;4.10;2.33;;;;;;;;;;5118188;27;20967;-86
2023/06/07 03:23:53;;;;;;;8.70;2.80;;;;;;;;;;5136530;27;20260;-80
2023/06/07 03:26:19;;;;;;;6.60;2.57;;;;;;;;;;5118043;27;20793;-82
2023/06/07 03:28:45;;;;;;;7.80;2.33;;;;;;;;;;5117716;27;20777;-85
2023/06/07 03:31:11;;;;;;;5.37;2.50;;;;;;;;;;5136352;27;20409;-86
2023/06/07 03:33:37;;;;;;;8.43;2.43;;;;;;;;;;5118140;27;20547;-87
2023/06/07 03:36:07;;;;;;;9.50;2.13;;;;;;;;;;5136217;27;20564;-84
2023/06/07 03:38:32;;;;;;;9.33;2.27;;;;;;;;;;5136304;27;20403;-80
2023/06/07 03:40:58;;;;;;;5.40;2.80;;;;;;;;;;5117695;27;20831;-83
2023/06/07 03:43:24;;;;;;;7.17;2.53;;;;;;;;;;5135773;27;20175;-80
2023/06/07 03:45:51;;;;;;;8.53;2.20;;;;;;;;;;5136122;27;20422;-80
2023/06/07 03:48:17;;;;;;;9.30;2.47;;;;;;;;;;5135959;27;20415;-84
2023/06/07 03:50:42;;;;;;;9.63;2.37;;;;;;;;;;5135939;27;20501;-80
2023/06/07 03:53:08;;;;;;;8.30;3.17;;;;;;;;;;5135965;27;20766;-80
2023/06/07 03:55:34;;;;;;;6.90;2.83;;;;;;;;;;5135814;27;20794;-80
2023/06/07 03:58:00;;;;;;;5.73;2.20;;;;;;;;;;5117414;27;20503;-80
2023/06/07 04:00:27;;;;;;;8.70;2.87;;;;;;;;;;5115942;27;20513;-80
2023/06/07 04:02:54;;;;;;;5.60;3.03;;;;;;;;;;5135705;27;20213;-79
2023/06/07 04:05:20;;;;;;;8.30;2.37;;;;;;;;;;5135692;27;20842;-83
2023/06/07 04:07:47;;;;;;;5.67;2.40;;;;;;;;;;5135605;27;20898;-82
2023/06/07 04:10:13;;;;;;;9.00;2.50;;;;;;;;;;5135541;27;20906;-82
2023/06/07 04:12:39;;;;;;;7.80;3.20;;;;;;;;;;5135421;27;20523;-83
2023/06/07 04:15:05;;;;;;;5.80;2.17;;;;;;;;;;5134767;27;20488;-79
2023/06/07 04:17:31;;;;;;;11.53;3.80;;;;;;;;;;5135395;27;20415;-78
2023/06/07 04:19:57;;;;;;;9.87;2.00;;;;;;;;;;5135220;27;20917;-79
2023/06/07 04:22:24;;;;;;;7.37;2.43;;;;;;;;;;5116953;27;20174;-82
2023/06/07 04:24:51;;;;;;;6.60;2.73;;;;;;;;;;5116863;27;20502;-79
2023/06/07 04:27:18;;;;;;;8.23;2.73;;;;;;;;;;5135349;27;20406;-82
2023/06/07 04:29:44;;;;;;;7.57;2.40;;;;;;;;;;5134840;27;20414;-79
2023/06/07 04:32:09;;;;;;;11.83;3.50;;;;;;;;;;5135069;27;20490;-79
2023/06/07 04:34:41;;;;;;;8.83;2.57;;;;;;;;;;5135003;27;20265;-79
2023/06/07 04:37:08;;;;;;;9.60;3.57;;;;;;;;;;5135006;27;20395;-81
2023/06/07 04:39:36;;;;;;;6.40;2.50;;;;;;;;;;5134865;27;20411;-78
2023/06/07 04:42:04;;;;;;;8.87;2.10;;;;;;;;;;5134869;27;20831;-79
2023/06/07 04:44:30;;;;;;;9.13;2.87;;;;;;;;;;5115652;27;20477;-79
2023/06/07 04:46:57;;;;;;;6.37;2.30;;;;;;;;;;5116009;27;20497;-80
2023/06/07 04:49:23;;;;;;;3.17;1.30;;;;;;;;;;5134476;27;20894;-79
2023/06/07 04:51:50;;;;;;;5.33;1.90;;;;;;;;;;5134562;27;20447;-80
2023/06/07 04:54:16;;;;;;;8.97;2.27;;;;;;;;;;5133619;27;20599;-83
2023/06/07 04:56:42;;;;;;;7.87;2.40;;;;;;;;;;5134587;27;20411;-80
2023/06/07 04:59:08;;;;;;;7.60;2.93;;;;;;;;;;5134228;27;20409;-81
2023/06/07 05:01:35;;;;;;;8.30;3.23;;;;;;;;;;5134537;27;20456;-82
2023/06/07 05:04:02;;;;;;;7.30;1.83;;;;;;;;;;5134612;27;20964;-80
2023/06/07 05:06:36;;;;;;;6.50;2.30;;;;;;;;;;5134544;27;21081;-80
2023/06/07 05:09:02;;;;;;;6.90;2.00;;;;;;;;;;5093488;28;20458;-80
2023/06/07 05:11:28;;;;;;;7.83;2.57;;;;;;;;;;5093237;28;20906;-81
2023/06/07 05:13:54;;;;;;;7.47;2.87;;;;;;;;;;5091541;28;20231;-83
2023/06/07 05:16:20;;;;;;;12.50;3.00;;;;;;;;;;5093359;28;20418;-80
2023/06/07 05:18:48;;;;;;;6.50;1.93;;;;;;;;;;5093430;28;20399;-82
2023/06/07 05:21:15;;;;;;;5.33;2.43;;;;;;;;;;5093268;28;20417;-82
2023/06/07 05:23:41;;;;;;;8.13;2.57;;;;;;;;;;5092189;28;20429;-78
2023/06/07 05:26:07;;;;;;;7.70;1.23;;;;;;;;;;5093231;28;20410;-79
2023/06/07 05:28:34;;;;;;;9.53;2.60;;;;;;;;;;5092913;28;20417;-78
2023/06/07 05:31:00;;;;;;;4.97;1.73;;;;;;;;;;5093334;28;20447;-84
2023/06/07 05:33:28;;;;;;;7.10;2.33;;;;;;;;;;5093269;28;20437;-79
2023/06/07 05:35:54;;;;;;;4.40;2.27;;;;;;;;;;5093174;28;20466;-80
2023/06/07 05:38:20;;;;;;;5.63;1.80;;;;;;;;;;5093283;28;20406;-79
2023/06/07 05:40:46;;;;;;;8.20;2.47;;;;;;;;;;5093003;28;20421;-83
2023/06/07 05:43:12;;;;;;;9.53;2.33;;;;;;;;;;5092636;28;20568;-81
2023/06/07 05:45:40;;;;;;;8.93;2.23;;;;;;;;;;5092774;28;20177;-79
2023/06/07 05:48:06;;;;;;;9.07;4.27;;;;;;;;;;5093017;28;20214;-79
2023/06/07 05:50:32;;;;;;;6.63;2.40;;;;;;;;;;5093104;28;20801;-82
2023/06/07 05:52:59;;;;;;;8.73;2.40;;;;;;;;;;5093026;28;20512;-81
2023/06/07 05:55:25;;;;;;;8.03;2.60;;;;;;;;;;5092948;28;20254;-80
2023/06/07 05:57:51;;;;;;;12.40;2.83;;;;;;;;;;5091361;28;20423;-83
2023/06/07 06:00:17;;;;;;;5.03;1.50;;;;;;;;;;5092838;28;20440;-80
2023/06/07 06:02:46;;;;;;;8.97;2.80;;;;;;;;;;5092711;28;20448;-79
2023/06/07 06:05:12;;;;;;;12.03;3.10;;;;;;;;;;5092956;28;20430;-86
2023/06/07 06:07:38;;;;;;;7.37;2.90;;;;;;;;;;5092935;28;20409;-80
2023/06/07 06:10:07;;;;;;;4.50;1.47;;;;;;;;;;5092931;28;20419;-79
2023/06/07 06:12:33;;;;;;;8.93;2.67;;;;;;;;;;5092867;28;20401;-81
2023/06/07 06:14:59;;;;;;;9.47;2.27;;;;;;;;;;5092111;28;20545;-82
2023/06/07 06:17:28;;;;;;;4.80;2.13;;;;;;;;;;5092658;28;20170;-79
2023/06/07 06:19:54;;;;;;;8.00;2.83;;;;;;;;;;5092682;28;20421;-80
2023/06/07 06:22:20;;;;;;;9.13;3.63;;;;;;;;;;5092770;28;20414;-82
2023/06/07 06:24:46;;;;;;;5.70;2.10;;;;;;;;;;5095774;28;20499;-79
2023/06/07 06:27:12;;;;;;;9.70;3.60;;;;;;;;;;5096648;28;20403;-81
2023/06/07 06:29:38;;;;;;;6.87;2.20;;;;;;;;;;5096298;28;20670;-81
2023/06/07 06:32:05;;;;;;;5.60;2.30;;;;;;;;;;5096565;28;20438;-79
2023/06/07 06:34:30;;;;;;;7.40;2.90;;;;;;;;;;5096294;28;20547;-80
2023/06/07 06:37:00;;;;;;;6.50;2.40;;;;;;;;;;5095179;28;20502;-80
2023/06/07 06:39:26;;;;;;;8.87;3.03;;;;;;;;;;5096464;28;20416;-79
2023/06/07 06:41:52;;;;;;;9.23;3.23;;;;;;;;;;5096391;28;20418;-80
2023/06/07 06:44:18;;;;;;;11.90;3.50;;;;;;;;;;5094681;28;20427;-79
2023/06/07 06:46:44;;;;;;;7.77;2.43;;;;;;;;;;5096292;28;20403;-81
2023/06/07 06:49:10;;;;;;;8.33;3.00;;;;;;;;;;5096168;28;21225;-80
2023/06/07 06:51:36;;;;;;;7.43;2.53;;;;;;;;;;5096243;28;20216;-80
2023/06/07 06:54:02;;;;;;;7.37;2.60;;;;;;;;;;5095957;28;20535;-80
2023/06/07 06:56:28;;;;;;;6.93;4.03;;;;;;;;;;5095980;28;20177;-79
2023/06/07 06:58:54;;;;;;;10.87;3.53;;;;;;;;;;5095896;28;20180;-80
2023/06/07 07:01:19;;;;;;;5.43;2.40;;;;;;;;;;5095980;28;20647;-80
2023/06/07 07:03:45;;;;;;;7.20;3.00;;;;;;;;;;5095969;28;20422;-81
2023/06/07 07:06:11;;;;;;;8.87;3.70;;;;;;;;;;5095914;28;20167;-80
2023/06/07 07:08:37;;;;;;;4.57;2.10;;;;;;;;;;5095825;28;20419;-81
2023/06/07 07:11:03;;;;;;;5.97;2.20;;;;;;;;;;5095888;28;20258;-80
2023/06/07 07:13:29;;;;;;;4.73;2.27;;;;;;;;;;5095168;28;20465;-79
2023/06/07 07:15:55;;;;;;;4.50;2.57;;;;;;;;;;5094424;28;20208;-83
2023/06/07 07:18:21;;;;;;;5.43;3.13;;;;;;;;;;5095677;28;20402;-80
2023/06/07 07:20:47;;;;;;;5.77;2.50;;;;;;;;;;5095727;28;20195;-80
2023/06/07 07:23:13;;;;;;;5.60;2.17;;;;;;;;;;5095655;28;20196;-86
2023/06/07 07:25:40;;;;;;;5.87;2.60;;;;;;;;;;5095530;28;20787;-86
2023/06/07 07:28:06;;;;;;;3.90;2.27;;;;;;;;;;5095372;28;20170;-79
2023/06/07 07:30:32;;;;;;;7.53;3.30;;;;;;;;;;5095522;28;20493;-79
2023/06/07 07:32:58;;;;;;;4.50;2.43;;;;;;;;;;5095358;28;20703;-79
2023/06/07 07:35:24;;;;;;;3.80;1.97;;;;;;;;;;5095198;28;20465;-79
2023/06/07 07:37:53;;;;;;;5.87;3.00;;;;;;;;;;5111944;28;20180;-80
2023/06/07 07:40:19;;;;;;;3.63;2.13;;;;;;;;;;5115687;28;20406;-81
2023/06/07 07:42:45;;;;;;;3.37;1.60;;;;;;;;;;5115296;28;20409;-87
2023/06/07 07:45:11;;;;;;;5.17;1.90;;;;;;;;;;5115579;28;20176;-80
2023/06/07 07:47:37;;;;;;;5.20;2.27;;;;;;;;;;5115683;28;20282;-80
2023/06/07 07:50:04;;;;;;;4.13;2.60;;;;;;;;;;5115507;28;20906;-82
2023/06/07 07:52:30;;;;;;;5.87;3.00;;;;;;;;;;5115525;28;20247;-87
2023/06/07 07:54:56;;;;;;;3.60;2.07;;;;;;;;;;5115342;28;20464;-87
2023/06/07 07:57:22;;;;;;;7.37;2.53;;;;;;;;;;5115221;28;20742;-80
2023/06/07 07:59:48;;;;;;;3.87;2.40;;;;;;;;;;5115190;28;20565;-81
2023/06/07 08:02:14;;;;;;;5.60;2.50;;;;;;;;;;5115324;28;20179;-81
2023/06/07 08:04:40;;;;;;;4.70;2.60;;;;;;;;;;5115241;28;20909;-80
2023/06/07 08:07:06;;;;;;;6.00;3.37;;;;;;;;;;5115165;28;20258;-78
2023/06/07 08:09:32;;;;;;;4.80;3.27;;;;;;;;;;5115091;28;20256;-78
2023/06/07 08:11:57;;;;;;;2.80;1.80;;;;;;;;;;5115115;28;20589;-79
2023/06/07 08:14:23;;;;;;;5.73;3.27;;;;;;;;;;5114419;28;20268;-78
2023/06/07 08:16:49;;;;;;;4.60;2.20;;;;;;;;;;5115117;28;20532;-78
2023/06/07 08:19:15;;;;;;;4.13;1.93;;;;;;;;;;5115045;28;20175;-78
2023/06/07 08:21:43;;;;;;;5.03;3.00;;;;;;;;;;5114914;28;20927;-79
2023/06/07 08:24:10;;;;;;;7.67;3.77;;;;;;;;;;5114894;28;20170;-78
2023/06/07 08:26:36;;;;;;;5.37;3.20;;;;;;;;;;5096782;28;20910;-79
2023/06/07 08:29:02;;;;;;;8.33;3.30;;;;;;;;;;5114520;28;21231;-80
2023/06/07 08:31:28;;;;;;;3.73;2.70;;;;;;;;;;5114759;28;20516;-78
2023/06/07 08:33:54;;;;;;;5.90;3.10;;;;;;;;;;5114628;28;20220;-79
2023/06/07 08:36:20;;;;;;;6.37;3.80;;;;;;;;;;5114485;28;20469;-80
2023/06/07 08:38:46;;;;;;;7.27;2.47;;;;;;;;;;5114618;28;20416;-79
2023/06/07 08:41:12;;;;;;;4.50;2.03;;;;;;;;;;5114509;28;20512;-77
2023/06/07 08:43:40;;;;;;;7.50;3.80;;;;;;;;;;5114180;28;20167;-78
2023/06/07 08:46:06;;;;;;;5.77;2.93;;;;;;;;;;5113473;28;20418;-79
2023/06/07 08:48:36;;;;;;;6.80;4.87;;;;;;;;;;5114366;28;20463;-78
2023/06/07 08:51:02;;;;;;;4.67;3.40;;;;;;;;;;5096099;28;20202;-79
2023/06/07 08:53:32;;;;;;;5.90;3.87;;;;;;;;;;5114218;28;20414;-78
2023/06/07 08:55:58;;;;;;;4.20;2.87;;;;;;;;;;5095864;28;20469;-79
2023/06/07 08:58:25;;;;;;;5.70;3.30;;;;;;;;;;5095571;28;20461;-84
2023/06/07 09:00:53;;;;;;;4.87;3.13;;;;;;;;;;5112259;27;20417;-81
2023/06/07 09:03:18;;;;;;;5.77;3.37;;;;;;;;;;5113076;27;20421;-81
2023/06/07 09:05:45;;;;;;;4.20;3.33;;;;;;;;;;5112464;28;20417;-80
2023/06/07 09:08:11;;;;;;;3.63;2.97;;;;;;;;;;5112229;28;20168;-78
2023/06/07 09:10:36;;;;;;;4.03;3.53;;;;;;;;;;5112790;28;20418;-80
2023/06/07 09:13:02;;;;;;;5.70;3.60;;;;;;;;;;5112282;28;20174;-81
2023/06/07 09:15:29;;;;;;;4.33;3.47;;;;;;;;;;5094630;28;20211;-79
2023/06/07 09:17:58;;;;;;;4.00;2.83;;;;;;;;;;5112722;28;20178;-82
2023/06/07 09:20:25;;;;;;;4.63;3.43;;;;;;;;;;5112836;28;20483;-81
2023/06/07 09:22:58;;;;;;;4.93;3.27;;;;;;;;;;5112578;28;20867;-83
2023/06/07 09:25:24;;;;;;;4.97;3.63;;;;;;;;;;5112536;28;20410;-82
2023/06/07 09:27:50;;;;;;;7.70;3.30;;;;;;;;;;5112188;28;20401;-81
2023/06/07 09:30:18;;;;;;;5.10;2.97;;;;;;;;;;5112417;28;20424;-83
2023/06/07 09:32:44;;;;;;;6.17;3.67;;;;;;;;;;5094438;28;20906;-82
2023/06/07 09:35:13;;;;;;;2.60;2.30;;;;;;;;;;5112330;28;20863;-81
2023/06/07 09:37:43;;;;;;;5.00;3.00;;;;;;;;;;5112472;28;20492;-81
2023/06/07 09:40:09;;;;;;;4.80;2.90;;;;;;;;;;5119883;27;20924;-80
2023/06/07 09:42:35;;;;;;;4.90;3.23;;;;;;;;;;5132636;27;20420;-79
2023/06/07 09:45:10;;;;;;;5.73;3.40;;;;;;;;;;5132802;27;20440;-79
2023/06/07 09:47:36;;;;;;;4.57;3.37;;;;;;;;;;5132848;27;20249;-80
2023/06/07 09:50:06;;;;;;;4.33;3.17;;;;;;;;;;5131826;27;20500;-80
2023/06/07 09:52:32;;;;;;;8.50;3.50;;;;;;;;;;5132676;28;20203;-81
2023/06/07 09:54:58;;;;;;;12.53;4.00;;;;;;;;;;5132582;28;20506;-81
2023/06/07 09:57:24;;;;;;;9.00;3.57;;;;;;;;;;5132626;27;20247;-80
2023/06/07 09:59:58;;;;;;;7.10;3.83;;;;;;;;;;5135553;27;20177;-80
2023/06/07 10:02:30;;;;;;;5.00;4.00;;;;;;;;;;5135759;27;20669;-80
2023/06/07 10:04:57;;;;;;;7.43;3.30;;;;;;;;;;5118435;27;20916;-80
2023/06/07 10:07:23;;;;;;;7.00;4.10;;;;;;;;;;5136324;27;20440;-81
2023/06/07 10:09:57;;;;;;;4.27;3.80;;;;;;;;;;5136846;27;20468;-80
2023/06/07 10:12:27;;;;;;;6.33;3.30;;;;;;;;;;5118244;27;20485;-83
2023/06/07 10:14:54;;;;;;;7.30;3.87;;;;;;;;;;5136563;27;20470;-81
2023/06/07 10:17:21;;;;;;;8.43;4.13;;;;;;;;;;5136523;27;20465;-81
2023/06/07 10:19:51;;;;;;;4.23;3.17;;;;;;;;;;5118328;27;20419;-81
2023/06/07 10:22:20;;;;;;;5.70;3.23;;;;;;;;;;5136742;27;20473;-82
2023/06/07 10:24:59;;;;;;;6.40;3.53;;;;;;;;;;5136630;27;20435;-80
2023/06/07 10:27:27;;;;;;;5.90;4.20;;;;;;;;;;5136514;27;20406;-89
2023/06/07 10:29:56;;;;;;;6.40;3.73;;;;;;;;;;5118157;27;20981;-79
2023/06/07 10:32:25;;;;;;;4.30;3.27;;;;;;;;;;5136519;27;20405;-80
2023/06/07 10:34:53;;;;;;;5.17;3.63;;;;;;;;;;5136336;27;20475;-79
2023/06/07 10:37:19;;;;;;;4.77;3.73;;;;;;;;;;5136477;27;20912;-85
2023/06/07 10:39:46;;;;;;;8.73;4.70;;;;;;;;;;5136355;27;20436;-80
2023/06/07 10:42:15;;;;;;;5.73;3.57;;;;;;;;;;5136084;27;20407;-79
2023/06/07 10:44:41;;;;;;;6.50;4.40;;;;;;;;;;5136371;27;20442;-81
2023/06/07 10:47:24;;;;;;;6.13;4.70;;;;;;;;;;5117663;27;20428;-79
2023/06/07 10:49:53;;;;;;;4.70;4.30;;;;;;;;;;5136218;27;20400;-81
2023/06/07 10:52:19;;;;;;;6.30;4.97;;;;;;;;;;5136180;27;20412;-81
2023/06/07 10:54:46;;;;;;;7.47;4.53;;;;;;;;;;5135785;27;20478;-82
2023/06/07 10:57:12;;;;;;;5.47;4.60;;;;;;;;;;5135660;27;20464;-79
2023/06/07 10:59:39;;;;;;;5.70;5.20;;;;;;;;;;5135886;27;20420;-78
2023/06/07 11:02:24;;;;;;;5.77;4.53;;;;;;;;;;5135997;27;20778;-79
2023/06/07 11:04:50;;;;;;;4.03;3.67;;;;;;;;;;5136156;27;20405;-81
2023/06/07 11:07:20;;;;;;;5.07;4.40;;;;;;;;;;5135976;27;20458;-79
2023/06/07 11:09:48;;;;;;;5.93;4.57;;;;;;;;;;5135344;27;20401;-81
2023/06/07 11:12:33;;;;;;;7.50;4.27;;;;;;;;;;5136743;27;20408;-83
2023/06/07 11:15:17;;;;;;;8.30;5.10;;;;;;;;;;5135686;27;20472;-81
2023/06/07 11:17:50;;;;;;;6.40;4.97;;;;;;;;;;5135960;27;20415;-84
2023/06/07 11:20:39;;;;;;;8.03;4.70;;;;;;;;;;5135521;27;20400;-81
2023/06/07 11:23:24;;;;;;;5.13;4.53;;;;;;;;;;5116926;27;20419;-81
2023/06/07 11:26:00;;;;;;;5.43;4.70;;;;;;;;;;5135575;27;20421;-82
2023/06/07 11:28:27;;;;;;;4.73;4.33;;;;;;;;;;5135161;27;20403;-81
2023/06/07 11:30:53;;;;;;;5.90;4.53;;;;;;;;;;5135305;27;20419;-80
2023/06/07 11:33:22;;;;;;;7.00;3.83;;;;;;;;;;5135295;27;20484;-80
2023/06/07 11:35:49;;;;;;;4.67;3.17;;;;;;;;;;5135140;27;20999;-82
2023/06/07 11:38:16;;;;;;;5.93;4.10;;;;;;;;;;5135207;27;20408;-81
2023/06/07 11:40:42;;;;;;;5.13;3.70;;;;;;;;;;5135226;27;20416;-79
2023/06/07 11:43:11;;;;;;;4.93;4.20;;;;;;;;;;5134692;27;20416;-83
2023/06/07 11:45:40;;;;;;;5.53;3.70;;;;;;;;;;5135074;27;20461;-84
2023/06/07 11:48:06;;;;;;;5.07;3.37;;;;;;;;;;5133673;27;20425;-82
2023/06/07 11:50:34;;;;;;;6.43;3.77;;;;;;;;;;5134760;27;20405;-84
2023/06/07 11:53:00;;;;;;;4.00;3.60;;;;;;;;;;5134512;27;20783;-81
2023/06/07 11:55:26;;;;;;;3.83;2.50;;;;;;;;;;5119799;27;20476;-81
2023/06/07 11:57:53;;;;;;;4.80;2.67;;;;;;;;;;5086566;28;20236;-80
2023/06/07 12:00:23;;;;;;;4.50;2.70;;;;;;;;;;5114075;28;20414;-86
2023/06/07 12:02:49;;;;;;;5.53;3.50;;;;;;;;;;5095806;28;20429;-81
2023/06/07 12:05:20;;;;;;;3.47;2.97;;;;;;;;;;5114048;28;20413;-82
2023/06/07 12:07:54;;;;;;;4.33;3.00;;;;;;;;;;5115085;27;20432;-82
2023/06/07 12:10:30;;;;;;;4.97;2.93;;;;;;;;;;5134276;27;20896;-82
2023/06/07 12:13:14;;;;;;;2.83;2.53;;;;;;;;;;5132948;27;20463;-81
2023/06/07 12:15:53;;;;;;;5.90;2.60;;;;;;;;;;5133820;27;21019;-82
2023/06/07 12:18:20;;;;;;;7.97;3.70;;;;;;;;;;5134247;27;20404;-81
2023/06/07 12:20:46;;;;;;;2.87;2.20;;;;;;;;;;5133429;27;20775;-81
2023/06/07 12:23:14;;;;;;;4.03;2.73;;;;;;;;;;5133676;27;20412;-80
2023/06/07 12:25:41;;;;;;;5.23;3.00;;;;;;;;;;5115926;27;20884;-80
2023/06/07 12:28:09;;;;;;;3.40;2.57;;;;;;;;;;5134629;27;20460;-78
2023/06/07 12:30:35;;;;;;;8.37;3.00;;;;;;;;;;5134957;27;20984;-81
2023/06/07 12:33:01;;;;;;;4.60;2.80;;;;;;;;;;5135106;27;20469;-82
2023/06/07 12:35:40;;;;;;;4.13;2.33;;;;;;;;;;5135015;27;20506;-80
2023/06/07 12:38:09;;;;;;;3.53;2.33;;;;;;;;;;5135083;27;20170;-78
2023/06/07 12:40:35;;;;;;;6.57;3.37;;;;;;;;;;5134836;27;20397;-82
2023/06/07 12:43:01;;;;;;;2.83;2.33;;;;;;;;;;5134645;27;20404;-84
2023/06/07 12:45:27;;;;;;;3.40;2.17;;;;;;;;;;5130431;27;20413;-78
2023/06/07 12:47:54;;;;;;;3.30;2.03;;;;;;;;;;5134635;27;20417;-83
2023/06/07 12:50:19;;;;;;;5.20;3.30;;;;;;;;;;5134592;27;20405;-78
2023/06/07 12:52:46;;;;;;;5.30;2.53;;;;;;;;;;5134568;27;20412;-78
2023/06/07 12:55:11;;;;;;;4.47;2.40;;;;;;;;;;5134367;27;20248;-78
2023/06/07 12:57:37;;;;;;;3.43;2.20;;;;;;;;;;5133966;27;20408;-81
2023/06/07 13:00:03;;;;;;;3.67;2.10;;;;;;;;;;5134222;27;20205;-78
2023/06/07 13:02:29;;;;;;;4.80;2.67;;;;;;;;;;5134257;27;20167;-77
2023/06/07 13:04:56;;;;;;;4.10;2.30;;;;;;;;;;5134321;27;20462;-78
2023/06/07 13:07:23;;;;;;;4.00;2.47;;;;;;;;;;5134310;27;20189;-79
2023/06/07 13:09:49;;;;;;;4.23;2.10;;;;;;;;;;5134147;27;20407;-78
2023/06/07 13:12:18;;;;;;;2.53;2.33;;;;;;;;;;5133698;27;20401;-77
2023/06/07 13:14:44;;;;;;;2.93;1.73;;;;;;;;;;5133892;27;20219;-79
2023/06/07 13:17:13;;;;;;;5.27;2.80;;;;;;;;;;5134123;27;20404;-77
2023/06/07 13:19:39;;;;;;;3.20;2.00;;;;;;;;;;5133944;27;20627;-79
2023/06/07 13:22:05;;;;;;;4.77;2.50;;;;;;;;;;5115366;27;20472;-79
2023/06/07 13:24:34;;;;;;;4.83;2.40;;;;;;;;;;5133963;27;20522;-78
2023/06/07 13:27:00;;;;;;;4.23;2.37;;;;;;;;;;5133585;27;20416;-83
2023/06/07 13:29:26;;;;;;;4.60;2.57;;;;;;;;;;5133790;27;20404;-77
2023/06/07 13:31:56;;;;;;;6.27;2.33;;;;;;;;;;5133742;27;20415;-78
2023/06/07 13:34:22;;;;;;;2.53;1.90;;;;;;;;;;5133636;27;20171;-78
2023/06/07 13:36:48;;;;;;;3.40;2.23;;;;;;;;;;5133639;27;20431;-80
2023/06/07 13:39:14;;;;;;;2.70;2.00;;;;;;;;;;5109276;27;20167;-79
2023/06/07 13:41:41;;;;;;;4.30;2.30;;;;;;;;;;5132208;27;20250;-84
2023/06/07 13:44:07;;;;;;;4.50;2.13;;;;;;;;;;5132477;27;20207;-79
2023/06/07 13:46:37;;;;;;;2.13;1.83;;;;;;;;;;5132451;27;20404;-82
2023/06/07 13:49:05;;;;;;;2.50;2.17;;;;;;;;;;5126986;27;20906;-86
2023/06/07 13:51:33;;;;;;;5.00;2.53;;;;;;;;;;5111622;28;20402;-80
2023/06/07 13:53:59;;;;;;;5.30;2.33;;;;;;;;;;5093370;28;20795;-82
2023/06/07 13:56:25;;;;;;;5.13;2.73;;;;;;;;;;5111587;28;20479;-83
2023/06/07 13:58:51;;;;;;;4.20;2.20;;;;;;;;;;5112143;28;20168;-87
2023/06/07 14:01:17;;;;;;;2.33;1.83;;;;;;;;;;5111833;28;21026;-85
2023/06/07 14:03:43;;;;;;;4.17;2.80;;;;;;;;;;5111774;28;20444;-81
2023/06/07 14:06:10;;;;;;;6.43;3.07;;;;;;;;;;5111727;28;20175;-80
2023/06/07 14:08:36;;;;;;;4.13;2.70;;;;;;;;;;5111868;28;20440;-81
2023/06/07 14:11:03;;;;;;;3.37;2.10;;;;;;;;;;5111631;28;20444;-83
2023/06/07 14:13:30;;;;;;;4.20;2.77;;;;;;;;;;5111159;28;20460;-84
2023/06/07 14:15:56;;;;;;;7.10;2.10;;;;;;;;;;5115962;28;20844;-86
2023/06/07 14:18:22;;;;;;;3.53;2.13;;;;;;;;;;5111592;28;20421;-79
2023/06/07 14:20:47;;;;;;;3.83;2.33;;;;;;;;;;5111925;28;20418;-86
2023/06/07 14:23:13;;;;;;;3.10;2.50;;;;;;;;;;5111856;28;20178;-83
2023/06/07 14:25:39;;;;;;;4.77;2.67;;;;;;;;;;5111630;28;20414;-86
2023/06/07 14:28:05;;;;;;;4.07;2.40;;;;;;;;;;5083895;28;20991;-78
2023/06/07 14:30:31;;;;;;;4.13;2.07;;;;;;;;;;5110719;28;20546;-83
2023/06/07 14:32:57;;;;;;;3.10;2.80;;;;;;;;;;5111347;28;20683;-80
2023/06/07 14:35:23;;;;;;;6.33;2.30;;;;;;;;;;5123052;28;20221;-84
2023/06/07 14:37:49;;;;;;;4.07;2.70;;;;;;;;;;5132205;28;20167;-86
2023/06/07 14:40:15;;;;;;;3.50;2.00;;;;;;;;;;5132151;28;20171;-86
2023/06/07 14:42:41;;;;;;;5.53;2.90;;;;;;;;;;5131903;28;20461;-82